createdAt,value
2023-04-14T00:02:51.761Z,99996.50
2023-04-14T00:07:56.032Z,100000.13
2023-04-14T00:13:00.211Z,100005.81
2023-04-14T00:18:03.052Z,100002.06
2023-04-14T00:23:07.255Z,100007.75
2023-04-14T00:28:10.046Z,100020.16
2023-04-14T00:33:13.204Z,100028.84
2023-04-14T00:38:17.330Z,100034.78
2023-04-14T00:43:20.315Z,100036.16
2023-04-14T00:48:23.609Z,100044.09
2023-04-14T00:53:28.350Z,100050.41
2023-04-14T00:58:31.555Z,100047.00
2023-04-14T01:03:34.548Z,100055.66
2023-04-14T01:08:38.936Z,100062.53
2023-04-14T01:13:46.822Z,100065.53
2023-04-14T01:18:56.240Z,100068.69
2023-04-14T01:24:34.662Z,100079.31
2023-04-14T01:29:50.461Z,100091.47
2023-04-14T01:34:56.835Z,100094.69
2023-04-14T01:40:05.742Z,100085.94
2023-04-14T01:45:12.194Z,100082.16
2023-04-14T01:50:17.947Z,100092.50
2023-04-14T01:55:21.964Z,100102.59
2023-04-14T02:00:25.538Z,100114.16
2023-04-14T02:05:30.670Z,100112.94
2023-04-14T02:10:34.174Z,100117.84
2023-04-14T02:15:40.877Z,100115.06
2023-04-14T02:20:45.189Z,100115.81
2023-04-14T02:25:52.681Z,100131.63
2023-04-14T02:30:57.405Z,100136.16
2023-04-14T02:36:03.513Z,100130.47
2023-04-14T02:41:08.302Z,100144.09
2023-04-14T02:46:13.200Z,100145.59
2023-04-14T02:51:19.210Z,100153.13
2023-04-14T02:56:23.015Z,100157.16
2023-04-14T03:01:28.075Z,100157.28
2023-04-14T03:06:33.178Z,100159.09
2023-04-14T03:11:37.729Z,100181.56
2023-04-14T03:16:41.268Z,100194.69
2023-04-14T03:21:47.338Z,100195.34
2023-04-14T03:26:50.618Z,100206.38
2023-04-14T03:31:55.544Z,100214.63
2023-04-14T03:37:00.709Z,100214.50
2023-04-14T03:42:03.921Z,100210.31
2023-04-14T03:47:08.194Z,100234.84
2023-04-14T03:52:14.801Z,100239.34
2023-04-14T03:57:18.987Z,100243.44
2023-04-14T04:02:23.251Z,100261.66
2023-04-14T04:07:28.492Z,100264.47
2023-04-14T04:12:32.341Z,100264.59
2023-04-14T04:17:38.756Z,100265.25
2023-04-14T04:22:46.118Z,100274.00
2023-04-14T04:27:49.978Z,100266.59
2023-04-14T04:32:53.802Z,100277.16
2023-04-14T04:38:00.857Z,100283.22
2023-04-14T04:43:04.547Z,100284.13
2023-04-14T04:48:08.302Z,100293.63
2023-04-14T04:53:13.923Z,100309.47
2023-04-14T04:58:17.529Z,100313.75
2023-04-14T05:03:20.238Z,100324.69
2023-04-14T05:08:24.423Z,100336.56
2023-04-14T05:13:27.141Z,100342.13
2023-04-14T05:18:29.857Z,100344.91
2023-04-14T05:23:36.299Z,100360.41
2023-04-14T05:28:39.387Z,100298.38
2023-04-14T05:33:42.096Z,100294.25
2023-04-14T05:38:46.479Z,100303.63
2023-04-14T05:43:49.280Z,100312.16
2023-04-14T05:48:52.350Z,100315.69
2023-04-14T05:53:56.388Z,100329.44
2023-04-14T05:58:59.083Z,100332.84
2023-04-14T06:04:03.689Z,100350.56
2023-04-14T06:09:08.148Z,100367.13
2023-04-14T06:14:10.885Z,100358.78
2023-04-14T06:19:13.649Z,100343.50
2023-04-14T06:24:17.751Z,100340.94
2023-04-14T06:29:20.499Z,100339.13
2023-04-14T06:34:23.215Z,100376.69
2023-04-14T06:39:27.360Z,100378.81
2023-04-14T06:44:30.034Z,100383.41
2023-04-14T06:49:32.786Z,100336.28
2023-04-14T06:54:36.848Z,100371.00
2023-04-14T06:59:39.595Z,100313.44
2023-04-14T07:04:42.334Z,100265.41
2023-04-14T07:09:46.534Z,100255.16
2023-04-14T07:14:52.374Z,100252.53
2023-04-14T07:19:55.216Z,100262.22
2023-04-14T07:24:59.298Z,100249.00
2023-04-14T07:30:02.073Z,100239.97
2023-04-14T07:35:05.770Z,100231.78
2023-04-14T07:40:11.137Z,100226.13
2023-04-14T07:45:13.857Z,100213.19
2023-04-14T07:50:19.599Z,100206.84
2023-04-14T07:55:25.405Z,100215.53
2023-04-14T08:00:28.665Z,100215.47
2023-04-14T08:05:31.681Z,100215.25
2023-04-14T08:10:36.319Z,100208.84
2023-04-14T08:15:39.043Z,100197.53
2023-04-14T08:20:42.005Z,100193.28
2023-04-14T08:25:46.154Z,100186.00
2023-04-14T08:30:49.350Z,100154.81
2023-04-14T08:35:58.042Z,100130.19
2023-04-14T08:41:05.756Z,100108.69
2023-04-14T08:46:10.572Z,100101.22
2023-04-14T08:51:15.738Z,100091.84
2023-04-14T08:56:19.996Z,100083.16
2023-04-14T09:01:22.918Z,100057.50
2023-04-14T09:06:27.958Z,100036.72
2023-04-14T09:11:32.355Z,100022.78
2023-04-14T09:16:35.411Z,99997.97
2023-04-14T09:21:53.798Z,99985.28
2023-04-14T09:26:58.642Z,99988.75
2023-04-14T09:32:01.522Z,99991.09
2023-04-14T09:37:05.617Z,99979.31
2023-04-14T09:42:09.713Z,99981.66
2023-04-14T09:47:16.219Z,99982.84
2023-04-14T09:52:19.028Z,99985.75
2023-04-14T09:57:27.308Z,99982.38
2023-04-14T10:02:30.773Z,99967.41
2023-04-14T10:07:34.423Z,99962.06
2023-04-14T10:12:38.534Z,99943.56
2023-04-14T10:17:42.325Z,99925.16
2023-04-14T10:22:45.075Z,99915.44
2023-04-14T10:27:49.917Z,99912.25
2023-04-14T10:32:53.407Z,99904.63
2023-04-14T10:37:56.249Z,99903.78
2023-04-14T10:43:00.419Z,99892.47
2023-04-14T10:48:03.949Z,99881.41
2023-04-14T10:53:09.271Z,99884.97
2023-04-14T10:58:20.063Z,99891.66
2023-04-14T11:03:23.108Z,99885.19
2023-04-14T11:08:27.376Z,99877.94
2023-04-14T11:13:32.410Z,99881.38
2023-04-14T11:18:38.607Z,99866.63
2023-04-14T11:23:42.400Z,99872.13
2023-04-14T11:28:46.963Z,99868.84
2023-04-14T11:33:49.869Z,99858.00
2023-04-14T11:38:52.629Z,99859.09
2023-04-14T11:43:56.862Z,99851.81
2023-04-14T11:48:59.920Z,99853.50
2023-04-14T11:54:03.386Z,99823.00
2023-04-14T11:59:07.651Z,99831.47
2023-04-14T12:04:10.609Z,99823.69
2023-04-14T12:09:13.457Z,99818.81
2023-04-14T12:14:18.638Z,99805.38
2023-04-14T12:19:22.129Z,99800.19
2023-04-14T12:24:24.921Z,99795.31
2023-04-14T12:29:29.093Z,99784.47
2023-04-14T12:34:32.574Z,99768.75
2023-04-14T12:39:50.546Z,99764.41
2023-04-14T12:44:58.873Z,99764.25
2023-04-14T12:50:03.091Z,99753.09
2023-04-14T12:55:07.027Z,99752.28
2023-04-14T13:00:12.505Z,99745.06
2023-04-14T13:05:15.643Z,99731.84
2023-04-14T13:10:18.536Z,99721.94
2023-04-14T13:16:10.864Z,99717.97
2023-04-14T13:20:45.542Z,99700.00
2023-04-14T13:25:48.669Z,99697.63
2023-04-14T13:30:54.624Z,99681.25
2023-04-14T13:35:57.439Z,99675.00
2023-04-14T13:41:00.291Z,99670.53
2023-04-14T13:46:04.507Z,99659.56
2023-04-14T13:51:07.207Z,99662.75
2023-04-14T13:56:10.020Z,99666.41
2023-04-14T14:01:14.073Z,99658.06
2023-04-14T14:06:16.863Z,99658.22
2023-04-14T14:11:19.571Z,99645.88
2023-04-14T14:16:36.215Z,99647.91
2023-04-14T14:21:40.274Z,99647.84
2023-04-14T14:26:42.977Z,99651.69
2023-04-14T14:31:47.193Z,99643.13
2023-04-14T14:36:50.070Z,99645.91
2023-04-14T14:41:52.983Z,99632.50
2023-04-14T14:46:57.211Z,99630.38
2023-04-14T14:52:01.781Z,99624.16
2023-04-14T14:57:04.598Z,99619.13
2023-04-14T15:02:08.713Z,99629.56
2023-04-14T15:07:11.508Z,99631.63
2023-04-14T15:12:14.531Z,99619.59
2023-04-14T15:17:18.708Z,99626.00
2023-04-14T15:22:21.618Z,99620.22
2023-04-14T15:27:24.358Z,99619.50
2023-04-14T15:32:28.589Z,99614.00
2023-04-14T15:37:31.337Z,99608.63
2023-04-14T15:42:34.093Z,99603.31
2023-04-14T15:47:38.223Z,99609.28
2023-04-14T15:52:41.173Z,99612.81
2023-04-14T15:57:43.908Z,99622.47
2023-04-14T16:02:48.342Z,99619.56
2023-04-14T16:07:52.105Z,99608.00
2023-04-14T16:12:54.828Z,99591.72
2023-04-14T16:17:58.967Z,99601.41
2023-04-14T16:23:01.701Z,99611.09
2023-04-14T16:28:04.473Z,99608.94
2023-04-14T16:33:08.646Z,99620.31
2023-04-14T16:38:11.346Z,99615.25
2023-04-14T16:43:14.048Z,99617.72
2023-04-14T16:48:18.764Z,99624.84
2023-04-14T16:53:21.699Z,99635.31
2023-04-14T16:58:24.507Z,99636.94
2023-04-14T17:03:28.783Z,99630.63
2023-04-14T17:08:31.754Z,99625.94
2023-04-14T17:13:34.553Z,99640.97
2023-04-14T17:18:38.972Z,99635.47
2023-04-14T17:23:42.225Z,99633.66
2023-04-14T17:28:45.597Z,99635.31
2023-04-14T17:33:50.011Z,99619.16
2023-04-14T17:38:52.890Z,99632.41
2023-04-14T17:43:55.598Z,99635.66
2023-04-14T17:48:59.893Z,99644.47
2023-04-14T17:54:02.840Z,99639.84
2023-04-14T17:59:05.948Z,99655.38
2023-04-14T18:04:10.155Z,99648.13
2023-04-14T18:09:13.007Z,99656.78
2023-04-14T18:14:15.978Z,99655.91
2023-04-14T18:19:20.138Z,99665.31
2023-04-14T18:29:29.773Z,99668.34
2023-04-14T18:34:34.757Z,99666.34
2023-04-14T18:39:37.730Z,99673.13
2023-04-14T18:44:40.458Z,99669.44
2023-04-14T18:49:44.794Z,99671.78
2023-04-14T18:54:47.512Z,99693.34
2023-04-14T18:59:50.258Z,99697.22
2023-04-14T19:04:54.992Z,99707.34
2023-04-14T19:09:57.963Z,99716.78
2023-04-14T19:15:02.538Z,99723.88
2023-04-14T19:20:08.186Z,99735.72
2023-04-14T19:25:11.694Z,99737.97
2023-04-14T19:30:14.736Z,99742.59
2023-04-14T19:35:18.977Z,99740.25
2023-04-14T19:40:21.807Z,99745.41
2023-04-14T19:45:24.503Z,99751.63
2023-04-14T19:50:28.552Z,99769.41
2023-04-14T19:55:31.266Z,99765.34
2023-04-14T20:00:40.817Z,99768.84
2023-04-14T20:05:45.026Z,99765.41
2023-04-14T20:10:50.896Z,99767.94
2023-04-14T20:15:54.898Z,99762.59
2023-04-14T20:20:59.556Z,99766.00
2023-04-14T20:26:03.297Z,99773.09
2023-04-14T20:31:06.581Z,99769.25
2023-04-14T20:36:11.282Z,99765.63
2023-04-14T20:41:13.977Z,99768.25
2023-04-14T20:46:16.759Z,99774.53
2023-04-14T20:51:20.827Z,99774.19
2023-04-14T20:56:24.679Z,99773.13
2023-04-14T21:01:27.915Z,99783.03
2023-04-14T21:06:33.127Z,99789.41
2023-04-14T21:11:35.951Z,99778.88
2023-04-14T21:16:38.929Z,99773.66
2023-04-14T21:21:43.077Z,99775.28
2023-04-14T21:26:45.972Z,99773.28
2023-04-14T21:31:48.724Z,99776.91
2023-04-14T21:36:53.090Z,99779.88
2023-04-14T21:41:56.444Z,99781.47
2023-04-14T21:46:59.176Z,99784.25
2023-04-14T21:52:03.289Z,99781.63
2023-04-14T21:57:06.086Z,99781.34
2023-04-14T22:02:09.282Z,99779.50
2023-04-14T22:07:13.430Z,99775.00
2023-04-14T22:12:16.468Z,99773.44
2023-04-14T22:17:19.268Z,99781.28
2023-04-14T22:22:23.676Z,99783.75
2023-04-14T22:27:26.565Z,99788.59
2023-04-14T22:32:29.338Z,99780.66
2023-04-14T22:37:33.706Z,99780.34
2023-04-14T22:42:36.640Z,99785.91
2023-04-14T22:47:39.485Z,99791.03
2023-04-14T22:52:43.665Z,99803.03
2023-04-14T22:57:46.408Z,99808.00
2023-04-14T23:02:50.726Z,99807.88
2023-04-14T23:07:55.066Z,99809.25
2023-04-14T23:12:58.010Z,99816.50
2023-04-14T23:18:01.561Z,99804.25
2023-04-14T23:23:05.796Z,99807.88
2023-04-14T23:28:09.911Z,99803.50
2023-04-14T23:33:12.647Z,99807.78
2023-04-14T23:38:18.350Z,99802.50
2023-04-14T23:43:22.124Z,99798.75
2023-04-14T23:48:25.665Z,99802.03
2023-04-14T23:53:29.812Z,99793.66
2023-04-14T23:58:33.668Z,99797.94
